createdAt,value
2023-02-18T00:02:07.134Z,11.18
2023-02-18T00:04:35.859Z,11.21
2023-02-18T00:07:04.447Z,11.30
2023-02-18T00:09:33.837Z,11.19
2023-02-18T00:12:02.484Z,11.17
2023-02-18T00:14:31.107Z,11.06
2023-02-18T00:17:00.531Z,11.01
2023-02-18T00:19:33.051Z,11.08
2023-02-18T00:22:02.591Z,11.11
2023-02-18T00:24:31.250Z,11.09
2023-02-18T00:26:59.867Z,11.08
2023-02-18T00:29:29.376Z,11.06
2023-02-18T00:31:58.921Z,11.03
2023-02-18T00:34:27.759Z,11.10
2023-02-18T00:36:56.967Z,11.09
2023-02-18T00:39:26.443Z,11.05
2023-02-18T00:41:55.053Z,10.93
2023-02-18T00:44:23.738Z,10.91
2023-02-18T00:46:53.468Z,10.90
2023-02-18T00:49:22.064Z,10.92
2023-02-18T00:51:51.447Z,10.95
2023-02-18T00:54:20.054Z,11.02
2023-02-18T00:56:48.798Z,10.98
2023-02-18T00:59:17.534Z,10.99
2023-02-18T01:01:46.187Z,11.10
2023-02-18T01:04:14.910Z,11.02
2023-02-18T01:06:43.606Z,11.04
2023-02-18T01:09:13.064Z,11.13
2023-02-18T01:11:41.688Z,11.24
2023-02-18T01:14:10.307Z,11.31
2023-02-18T01:16:38.938Z,11.15
2023-02-18T01:19:06.633Z,11.57
2023-02-18T01:21:34.366Z,11.92
2023-02-18T01:24:02.060Z,12.19
2023-02-18T01:26:32.659Z,12.59
2023-02-18T01:29:00.319Z,12.62
2023-02-18T01:31:28.068Z,12.70
2023-02-18T01:33:57.585Z,12.70
2023-02-18T01:36:25.274Z,12.81
2023-02-18T01:38:53.816Z,12.89
2023-02-18T01:41:22.043Z,12.94
2023-02-18T01:43:49.726Z,12.97
2023-02-18T01:46:22.765Z,12.92
2023-02-18T01:48:52.021Z,13.03
2023-02-18T01:52:00.910Z,13.07
2023-02-18T01:54:45.002Z,13.12
2023-02-18T01:57:35.417Z,13.07
2023-02-18T02:00:17.981Z,13.17
2023-02-18T02:02:49.565Z,13.21
2023-02-18T02:05:20.358Z,13.23
2023-02-18T02:07:52.713Z,13.25
2023-02-18T02:10:21.252Z,13.23
2023-02-18T02:13:26.878Z,13.21
2023-02-18T02:16:50.027Z,13.16
2023-02-18T02:19:51.950Z,13.18
2023-02-18T02:22:41.360Z,13.31
2023-02-18T02:25:54.856Z,13.25
2023-02-18T02:29:19.384Z,13.36
2023-02-18T02:32:29.710Z,13.45
2023-02-18T02:35:09.956Z,13.58
2023-02-18T02:37:54.631Z,13.54
2023-02-18T02:40:47.503Z,13.63
2023-02-18T02:43:46.777Z,13.55
2023-02-18T02:46:40.609Z,13.76
2023-02-18T02:49:55.110Z,13.69
2023-02-18T02:52:50.237Z,13.71
2023-02-18T02:55:17.948Z,13.67
2023-02-18T02:57:52.656Z,13.77
2023-02-18T03:01:18.639Z,13.87
2023-02-18T03:04:43.561Z,13.84
2023-02-18T03:07:44.746Z,13.93
2023-02-18T03:10:50.949Z,-146.39
2023-02-18T03:14:05.547Z,-146.39
2023-02-18T03:17:03.768Z,-146.39
2023-02-18T03:19:43.456Z,13.93
2023-02-18T03:22:19.108Z,13.80
2023-02-18T03:24:55.224Z,13.87
2023-02-18T03:27:53.357Z,13.84
2023-02-18T03:30:53.678Z,13.84
2023-02-18T03:33:33.872Z,13.76
2023-02-18T03:36:02.638Z,13.75
2023-02-18T03:38:43.022Z,13.68
2023-02-18T03:41:11.294Z,13.72
2023-02-18T03:43:41.811Z,-146.39
2023-02-18T03:46:10.566Z,-146.39
2023-02-18T03:48:38.468Z,-146.39
2023-02-18T03:51:07.011Z,-146.39
2023-02-18T03:53:34.630Z,-146.39
2023-02-18T03:56:02.249Z,-146.39
2023-02-18T03:58:30.755Z,-146.39
2023-02-18T04:00:58.509Z,-146.39
2023-02-18T04:03:26.225Z,-146.39
2023-02-18T04:05:53.810Z,-146.39
2023-02-18T04:08:21.479Z,-146.39
2023-02-18T04:10:49.945Z,-146.39
2023-02-18T04:13:18.587Z,-146.39
2023-02-18T04:15:48.815Z,13.72
2023-02-18T04:18:16.440Z,13.80
2023-02-18T04:20:44.510Z,13.81
2023-02-18T04:23:12.432Z,13.89
2023-02-18T04:25:40.239Z,13.91
2023-02-18T04:28:08.251Z,-146.39
2023-02-18T04:30:36.031Z,-146.39
2023-02-18T04:33:03.723Z,-146.39
2023-02-18T04:35:31.456Z,-146.39
2023-02-18T04:37:59.909Z,13.91
2023-02-18T04:40:30.749Z,13.82
2023-02-18T04:43:02.717Z,13.81
2023-02-18T04:45:31.543Z,13.81
2023-02-18T04:47:59.353Z,13.79
2023-02-18T04:50:27.154Z,13.84
2023-02-18T04:52:54.802Z,13.80
2023-02-18T04:55:22.466Z,13.82
2023-02-18T04:57:50.163Z,13.82
2023-02-18T05:00:20.650Z,13.75
2023-02-18T05:02:48.956Z,13.79
2023-02-18T05:05:17.088Z,13.70
2023-02-18T05:07:44.791Z,13.57
2023-02-18T05:10:18.813Z,13.51
2023-02-18T05:12:46.531Z,13.45
2023-02-18T05:15:14.227Z,13.51
2023-02-18T05:17:41.888Z,13.48
2023-02-18T05:20:10.770Z,13.45
2023-02-18T05:22:39.146Z,13.34
2023-02-18T05:25:07.655Z,13.40
2023-02-18T05:27:35.374Z,13.33
2023-02-18T05:30:03.262Z,13.33
2023-02-18T05:32:30.949Z,13.23
2023-02-18T05:34:58.595Z,13.13
2023-02-18T05:37:26.266Z,13.02
2023-02-18T05:39:53.942Z,12.88
2023-02-18T05:42:21.642Z,12.82
2023-02-18T05:44:49.484Z,12.74
2023-02-18T05:47:17.414Z,12.78
2023-02-18T05:49:45.349Z,12.70
2023-02-18T05:52:13.112Z,12.62
2023-02-18T05:54:41.001Z,12.56
2023-02-18T05:57:08.891Z,12.61
2023-02-18T05:59:36.564Z,12.69
2023-02-18T06:02:05.125Z,12.55
2023-02-18T06:04:33.788Z,12.62
2023-02-18T06:07:01.551Z,12.67
2023-02-18T06:09:30.095Z,12.63
2023-02-18T06:11:58.714Z,12.73
2023-02-18T06:14:26.573Z,12.61
2023-02-18T06:16:54.222Z,12.55
2023-02-18T06:19:21.948Z,12.56
2023-02-18T06:21:49.726Z,12.50
2023-02-18T06:24:17.379Z,12.52
2023-02-18T06:26:45.158Z,12.48
2023-02-18T06:29:12.867Z,12.49
2023-02-18T06:31:44.127Z,12.52
2023-02-18T06:34:11.811Z,12.58
2023-02-18T06:36:40.551Z,12.49
2023-02-18T06:39:08.780Z,12.58
2023-02-18T06:41:36.579Z,12.61
2023-02-18T06:44:04.870Z,12.55
2023-02-18T06:46:32.604Z,12.57
2023-02-18T06:49:00.544Z,12.62
2023-02-18T06:51:28.249Z,12.60
2023-02-18T06:53:55.899Z,12.89
2023-02-18T06:56:27.115Z,13.08
2023-02-18T06:58:54.825Z,13.12
2023-02-18T07:01:23.272Z,12.87
2023-02-18T07:03:51.750Z,12.81
2023-02-18T07:06:19.428Z,12.94
2023-02-18T07:08:47.105Z,13.13
2023-02-18T07:11:14.752Z,13.35
2023-02-18T07:13:42.407Z,13.42
2023-02-18T07:16:10.278Z,13.36
2023-02-18T07:18:38.163Z,13.39
2023-02-18T07:21:06.008Z,13.33
2023-02-18T07:23:33.666Z,13.83
2023-02-18T07:26:11.700Z,13.35
2023-02-18T07:28:40.072Z,13.26
2023-02-18T07:31:08.784Z,13.36
2023-02-18T07:33:36.773Z,13.32
2023-02-18T07:36:05.648Z,13.48
2023-02-18T07:38:33.432Z,13.47
2023-02-18T07:41:01.317Z,13.40
2023-02-18T07:43:29.103Z,13.35
2023-02-18T07:45:56.787Z,13.66
2023-02-18T07:48:24.641Z,13.68
2023-02-18T07:50:52.303Z,13.98
2023-02-18T07:53:20.063Z,13.97
2023-02-18T07:55:50.421Z,13.70
2023-02-18T07:58:32.262Z,14.15
2023-02-18T08:01:02.318Z,14.46
2023-02-18T08:03:33.207Z,14.28
2023-02-18T08:06:04.296Z,14.21
2023-02-18T08:08:35.188Z,14.75
2023-02-18T08:11:18.406Z,15.10
2023-02-18T08:13:48.470Z,14.50
2023-02-18T08:16:19.618Z,14.57
2023-02-18T08:18:48.642Z,14.48
2023-02-18T08:21:20.316Z,14.24
2023-02-18T08:23:48.728Z,14.91
2023-02-18T08:26:17.095Z,14.64
2023-02-18T08:28:46.771Z,14.96
2023-02-18T08:31:27.736Z,14.74
2023-02-18T08:33:59.060Z,15.05
2023-02-18T08:36:28.180Z,14.74
2023-02-18T08:38:56.066Z,14.60
2023-02-18T08:41:24.060Z,15.30
2023-02-18T08:43:51.738Z,15.47
2023-02-18T08:46:31.526Z,15.29
2023-02-18T08:49:03.973Z,15.74
2023-02-18T08:51:31.943Z,15.32
2023-02-18T08:53:59.728Z,16.00
2023-02-18T08:56:27.672Z,15.54
2023-02-18T08:58:55.377Z,15.16
2023-02-18T09:01:23.151Z,15.80
2023-02-18T09:03:52.674Z,15.59
2023-02-18T09:06:24.143Z,16.26
2023-02-18T09:08:53.754Z,15.57
2023-02-18T09:11:21.663Z,15.07
2023-02-18T09:13:49.271Z,14.99
2023-02-18T09:16:19.522Z,14.66
2023-02-18T09:18:49.452Z,14.47
2023-02-18T09:21:20.844Z,14.64
2023-02-18T09:23:51.409Z,14.62
2023-02-18T09:26:26.328Z,14.95
2023-02-18T09:28:57.231Z,15.35
2023-02-18T09:31:28.565Z,15.19
2023-02-18T09:34:02.376Z,15.10
2023-02-18T09:36:30.540Z,14.93
2023-02-18T09:38:59.448Z,14.61
2023-02-18T09:41:44.324Z,14.65
2023-02-18T09:44:45.492Z,14.93
2023-02-18T09:47:29.977Z,14.89
2023-02-18T09:50:27.250Z,14.77
2023-02-18T09:52:55.283Z,14.86
2023-02-18T09:55:42.362Z,14.90
2023-02-18T09:58:28.317Z,14.70
2023-02-18T10:01:38.504Z,14.83
2023-02-18T10:04:23.930Z,14.81
2023-02-18T10:06:55.391Z,14.94
2023-02-18T10:09:42.122Z,15.02
2023-02-18T10:12:20.653Z,15.02
2023-02-18T10:15:01.471Z,14.94
2023-02-18T10:17:34.342Z,15.39
2023-02-18T10:20:07.808Z,15.18
2023-02-18T10:22:38.561Z,15.38
2023-02-18T10:25:07.875Z,15.33
2023-02-18T10:27:39.630Z,15.08
2023-02-18T10:30:16.011Z,15.48
2023-02-18T10:32:47.636Z,16.02
2023-02-18T10:35:24.055Z,16.31
2023-02-18T10:38:07.664Z,15.82
2023-02-18T10:41:00.137Z,16.14
2023-02-18T10:44:04.835Z,16.46
2023-02-18T10:46:44.294Z,16.54
2023-02-18T10:49:41.845Z,16.51
2023-02-18T10:52:19.107Z,16.51
2023-02-18T10:55:19.085Z,16.28
2023-02-18T10:57:57.871Z,16.29
2023-02-18T11:00:28.183Z,16.21
2023-02-18T11:03:20.197Z,16.11
2023-02-18T11:05:56.276Z,15.58
2023-02-18T11:08:43.067Z,15.46
2023-02-18T11:11:32.714Z,15.08
2023-02-18T11:14:05.154Z,15.15
2023-02-18T11:16:45.751Z,15.27
2023-02-18T11:19:35.621Z,15.19
2023-02-18T11:22:21.627Z,15.26
2023-02-18T11:24:54.390Z,15.22
2023-02-18T11:27:30.760Z,15.21
2023-02-18T11:30:07.381Z,14.85
2023-02-18T11:32:37.774Z,15.00
2023-02-18T11:35:06.831Z,14.93
2023-02-18T11:37:38.412Z,14.78
2023-02-18T11:40:07.767Z,15.05
2023-02-18T11:42:35.638Z,15.42
2023-02-18T11:45:05.822Z,15.82
2023-02-18T11:47:38.197Z,15.21
2023-02-18T11:50:17.727Z,15.37
2023-02-18T11:52:50.868Z,15.50
2023-02-18T11:55:26.078Z,15.68
2023-02-18T11:58:05.303Z,15.39
2023-02-18T12:00:57.415Z,15.51
2023-02-18T12:03:57.255Z,16.11
2023-02-18T12:07:02.441Z,15.92
2023-02-18T12:09:43.682Z,15.40
2023-02-18T12:12:36.599Z,15.31
2023-02-18T12:15:04.603Z,15.63
2023-02-18T12:18:33.169Z,15.53
2023-02-18T12:21:36.811Z,15.62
2023-02-18T12:24:42.066Z,15.54
2023-02-18T12:27:48.533Z,15.65
2023-02-18T12:31:07.633Z,15.96
2023-02-18T12:34:44.026Z,15.83
2023-02-18T12:38:15.630Z,15.79
2023-02-18T12:41:01.631Z,15.55
2023-02-18T12:43:58.303Z,15.36
2023-02-18T12:47:27.168Z,15.41
2023-02-18T12:49:57.718Z,15.49
2023-02-18T12:53:14.804Z,15.75
2023-02-18T12:56:20.028Z,15.62
2023-02-18T13:00:04.477Z,15.77
2023-02-18T13:03:09.955Z,15.73
2023-02-18T13:06:42.367Z,15.81
2023-02-18T13:09:42.791Z,15.48
2023-02-18T13:12:35.167Z,15.73
2023-02-18T13:15:23.895Z,16.15
2023-02-18T13:17:58.292Z,16.18
2023-02-18T13:20:46.935Z,15.67
2023-02-18T13:23:38.891Z,15.96
2023-02-18T13:26:12.417Z,16.05
2023-02-18T13:29:25.026Z,16.53
2023-02-18T13:32:53.465Z,17.28
2023-02-18T13:36:11.547Z,16.99
2023-02-18T13:39:11.589Z,17.04
2023-02-18T13:41:43.770Z,17.51
2023-02-18T13:44:23.285Z,17.25
2023-02-18T13:46:58.252Z,17.11
2023-02-18T13:49:34.651Z,16.77
2023-02-18T13:52:05.571Z,16.48
2023-02-18T13:54:59.471Z,16.62
2023-02-18T13:57:28.919Z,16.76
2023-02-18T14:00:06.303Z,16.51
2023-02-18T14:02:36.891Z,16.68
2023-02-18T14:05:24.577Z,16.77
2023-02-18T14:08:33.606Z,16.51
2023-02-18T14:11:40.718Z,16.86
2023-02-18T14:14:28.016Z,17.05
2023-02-18T14:17:20.557Z,16.62
2023-02-18T14:20:02.330Z,17.04
2023-02-18T14:22:51.576Z,16.86
2023-02-18T14:25:40.034Z,16.73
2023-02-18T14:28:36.214Z,16.77
2023-02-18T14:31:30.985Z,16.53
2023-02-18T14:34:25.555Z,16.52
2023-02-18T14:37:17.427Z,16.39
2023-02-18T14:40:26.332Z,16.35
2023-02-18T14:43:46.133Z,16.35
2023-02-18T14:46:54.884Z,16.34
2023-02-18T14:49:42.367Z,16.28
2023-02-18T14:52:39.308Z,16.17
2023-02-18T14:55:17.145Z,15.90
2023-02-18T14:57:55.113Z,16.21
2023-02-18T15:00:32.482Z,15.86
2023-02-18T15:03:02.558Z,16.06
2023-02-18T15:05:38.156Z,16.14
2023-02-18T15:08:23.016Z,16.28
2023-02-18T15:11:09.213Z,15.89
2023-02-18T15:13:44.470Z,15.86
2023-02-18T15:16:43.278Z,15.71
2023-02-18T15:19:21.340Z,15.47
2023-02-18T15:21:53.657Z,15.44
2023-02-18T15:24:39.006Z,15.45
2023-02-18T15:27:25.868Z,15.21
2023-02-18T15:30:25.361Z,14.56
2023-02-18T15:33:00.299Z,14.50
2023-02-18T15:35:33.509Z,14.22
2023-02-18T15:38:04.644Z,14.04
2023-02-18T15:40:38.244Z,13.71
2023-02-18T15:43:08.567Z,13.71
2023-02-18T15:45:44.222Z,13.42
2023-02-18T15:48:43.188Z,13.16
2023-02-18T15:51:18.099Z,12.99
2023-02-18T15:53:53.038Z,12.92
2023-02-18T15:56:39.273Z,12.65
2023-02-18T15:59:28.377Z,12.56
2023-02-18T16:02:19.859Z,12.43
2023-02-18T16:04:58.445Z,12.28
2023-02-18T16:07:32.235Z,12.20
2023-02-18T16:10:36.341Z,12.09
2023-02-18T16:13:06.786Z,11.93
2023-02-18T16:15:44.379Z,11.78
2023-02-18T16:18:41.433Z,11.78
2023-02-18T16:21:19.100Z,11.67
2023-02-18T16:24:00.462Z,11.63
2023-02-18T16:26:44.698Z,11.60
2023-02-18T16:29:45.888Z,11.67
2023-02-18T16:32:15.437Z,11.40
2023-02-18T16:34:44.150Z,11.34
2023-02-18T16:37:32.228Z,11.35
2023-02-18T16:40:01.877Z,11.24
2023-02-18T16:42:31.101Z,11.21
2023-02-18T16:45:00.626Z,11.17
2023-02-18T16:47:30.096Z,11.08
2023-02-18T16:50:00.017Z,10.94
2023-02-18T16:52:29.441Z,10.93
2023-02-18T16:54:58.868Z,10.88
2023-02-18T16:57:27.493Z,10.79
2023-02-18T16:59:56.896Z,10.77
2023-02-18T17:02:26.870Z,10.91
2023-02-18T17:04:57.558Z,10.62
2023-02-18T17:07:27.173Z,10.69
2023-02-18T17:09:57.592Z,10.71
2023-02-18T17:12:27.286Z,10.69
2023-02-18T17:14:56.809Z,10.69
2023-02-18T17:17:28.023Z,10.60
2023-02-18T17:19:57.471Z,10.57
2023-02-18T17:22:26.912Z,10.55
2023-02-18T17:24:54.644Z,10.59
2023-02-18T17:27:24.186Z,10.44
2023-02-18T17:29:53.785Z,10.19
2023-02-18T17:32:23.297Z,10.16
2023-02-18T17:34:51.030Z,10.10
2023-02-18T17:37:20.469Z,10.04
2023-02-18T17:39:49.996Z,10.02
2023-02-18T17:42:21.279Z,10.10
2023-02-18T17:44:50.828Z,9.98
2023-02-18T17:47:18.691Z,10.02
2023-02-18T17:49:48.319Z,9.91
2023-02-18T17:52:36.367Z,9.98
2023-02-18T17:55:26.763Z,9.88
2023-02-18T17:57:58.301Z,10.01
2023-02-18T18:00:40.555Z,9.92
2023-02-18T18:03:14.937Z,9.77
2023-02-18T18:05:49.272Z,9.84
2023-02-18T18:08:20.024Z,9.78
2023-02-18T18:10:57.279Z,9.86
2023-02-18T18:13:32.454Z,9.80
2023-02-18T18:16:02.171Z,9.79
2023-02-18T18:18:29.932Z,9.82
2023-02-18T18:21:01.939Z,9.85
2023-02-18T18:23:35.715Z,9.79
2023-02-18T18:26:05.518Z,9.80
2023-02-18T18:28:37.531Z,9.89
2023-02-18T18:31:11.162Z,9.96
2023-02-18T18:33:41.680Z,10.00
2023-02-18T18:36:11.487Z,9.92
2023-02-18T18:38:41.233Z,9.92
2023-02-18T18:41:22.949Z,9.90
2023-02-18T18:43:52.622Z,9.94
2023-02-18T18:46:20.446Z,9.88
2023-02-18T18:48:50.201Z,9.97
2023-02-18T18:51:28.988Z,9.80
2023-02-18T18:53:58.595Z,9.93
2023-02-18T18:56:26.371Z,9.81
2023-02-18T18:58:56.220Z,9.88
2023-02-18T19:01:27.357Z,9.78
2023-02-18T19:03:57.169Z,9.73
2023-02-18T19:06:26.727Z,9.95
2023-02-18T19:08:57.094Z,9.86
2023-02-18T19:11:26.622Z,9.62
2023-02-18T19:13:54.438Z,9.75
2023-02-18T19:16:38.805Z,9.88
2023-02-18T19:19:11.701Z,10.03
2023-02-18T19:21:41.901Z,9.86
2023-02-18T19:24:11.474Z,9.81
2023-02-18T19:26:41.084Z,10.00
2023-02-18T19:29:10.666Z,9.93
2023-02-18T19:31:40.425Z,9.75
2023-02-18T19:34:12.910Z,9.87
2023-02-18T19:36:45.142Z,9.87
2023-02-18T19:39:14.734Z,9.48
2023-02-18T19:41:44.336Z,9.57
2023-02-18T19:44:13.847Z,9.48
2023-02-18T19:46:43.405Z,9.47
2023-02-18T19:49:11.120Z,9.34
2023-02-18T19:51:40.683Z,9.48
2023-02-18T19:54:13.042Z,9.43
2023-02-18T19:56:43.730Z,9.59
2023-02-18T19:59:13.226Z,9.76
2023-02-18T20:01:42.745Z,9.78
2023-02-18T20:04:12.388Z,9.85
2023-02-18T20:06:41.898Z,9.70
2023-02-18T20:09:09.659Z,9.67
2023-02-18T20:11:39.170Z,9.73
2023-02-18T20:14:08.798Z,9.71
2023-02-18T20:16:38.416Z,9.74
2023-02-18T20:19:07.956Z,9.80
2023-02-18T20:21:37.505Z,9.63
2023-02-18T20:24:10.652Z,9.91
2023-02-18T20:26:40.157Z,9.95
2023-02-18T20:29:09.877Z,10.06
2023-02-18T20:31:39.677Z,10.22
2023-02-18T20:34:10.888Z,10.32
2023-02-18T20:36:39.659Z,10.46
2023-02-18T20:39:16.172Z,10.46
2023-02-18T20:41:48.443Z,10.42
2023-02-18T20:44:20.834Z,10.47
2023-02-18T20:46:50.854Z,10.65
2023-02-18T20:49:22.395Z,10.67
2023-02-18T20:51:51.968Z,10.88
2023-02-18T20:54:21.575Z,10.94
2023-02-18T20:56:53.092Z,11.01
2023-02-18T20:59:22.642Z,10.85
2023-02-18T21:01:51.337Z,10.50
2023-02-18T21:04:22.916Z,10.38
2023-02-18T21:06:51.651Z,10.18
2023-02-18T21:09:21.502Z,10.16
2023-02-18T21:11:51.061Z,10.24
2023-02-18T21:14:20.661Z,10.59
2023-02-18T21:16:50.162Z,10.99
2023-02-18T21:19:19.837Z,10.93
2023-02-18T21:21:49.343Z,10.94
2023-02-18T21:24:18.851Z,10.93
2023-02-18T21:26:47.554Z,10.85
2023-02-18T21:29:17.314Z,11.09
2023-02-18T21:31:46.955Z,11.08
2023-02-18T21:34:17.381Z,11.15
2023-02-18T21:36:46.086Z,11.17
2023-02-18T21:39:15.636Z,11.18
2023-02-18T21:41:45.162Z,11.15
2023-02-18T21:44:14.683Z,11.16
2023-02-18T21:46:44.296Z,11.26
2023-02-18T21:49:14.021Z,11.49
2023-02-18T21:52:08.746Z,11.32
2023-02-18T21:54:47.233Z,11.42
2023-02-18T21:57:21.510Z,11.42
2023-02-18T21:59:51.741Z,11.40
2023-02-18T22:02:29.010Z,11.52
2023-02-18T22:05:02.350Z,11.54
2023-02-18T22:07:31.849Z,11.45
2023-02-18T22:10:01.341Z,11.26
2023-02-18T22:12:32.178Z,11.05
2023-02-18T22:15:01.664Z,11.09
2023-02-18T22:17:32.238Z,10.97
2023-02-18T22:20:01.912Z,10.89
2023-02-18T22:22:32.015Z,10.88
2023-02-18T22:25:01.703Z,10.83
2023-02-18T22:27:31.179Z,10.74
2023-02-18T22:30:00.691Z,10.62
2023-02-18T22:32:32.002Z,10.67
2023-02-18T22:35:00.785Z,10.65
2023-02-18T22:37:30.262Z,10.68
2023-02-18T22:39:59.763Z,10.52
2023-02-18T22:42:29.305Z,10.46
2023-02-18T22:45:02.804Z,10.40
2023-02-18T22:47:32.355Z,10.21
2023-02-18T22:50:01.875Z,10.17
2023-02-18T22:52:31.437Z,10.22
2023-02-18T22:55:00.923Z,10.21
2023-02-18T22:57:30.432Z,10.03
2023-02-18T22:59:59.899Z,10.20
2023-02-18T23:02:28.524Z,10.14
2023-02-18T23:04:57.962Z,10.32
2023-02-18T23:07:27.337Z,10.29
2023-02-18T23:09:56.011Z,10.54
2023-02-18T23:12:24.771Z,10.81
2023-02-18T23:14:53.188Z,11.13
2023-02-18T23:17:22.634Z,11.24
2023-02-18T23:19:54.454Z,11.30
2023-02-18T23:22:33.530Z,11.35
2023-02-18T23:25:02.546Z,11.52
2023-02-18T23:27:30.693Z,11.41
2023-02-18T23:30:00.228Z,11.37
2023-02-18T23:32:32.137Z,11.31
2023-02-18T23:35:01.648Z,11.37
2023-02-18T23:37:48.034Z,11.34
2023-02-18T23:40:16.878Z,11.26
2023-02-18T23:42:44.634Z,11.35
2023-02-18T23:45:12.354Z,11.29
2023-02-18T23:47:40.111Z,11.23
2023-02-18T23:50:08.085Z,11.15
2023-02-18T23:52:37.698Z,11.13
2023-02-18T23:55:05.933Z,11.21
2023-02-18T23:57:33.655Z,11.15
